sensor_id;sensor_type;location;lat;lon;timestamp;temperature;humidity
39665;DHT22;26679;50.872;4.332;2023-06-14T00:00:35;24.80;62.20
39665;DHT22;26679;50.872;4.332;2023-06-14T00:03:01;24.80;62.30
39665;DHT22;26679;50.872;4.332;2023-06-14T00:05:29;24.70;62.30
39665;DHT22;26679;50.872;4.332;2023-06-14T00:07:55;24.60;62.60
39665;DHT22;26679;50.872;4.332;2023-06-14T00:10:21;24.60;62.70
39665;DHT22;26679;50.872;4.332;2023-06-14T00:12:46;24.60;62.70
39665;DHT22;26679;50.872;4.332;2023-06-14T00:15:12;24.60;62.70
39665;DHT22;26679;50.872;4.332;2023-06-14T00:17:37;24.60;62.80
39665;DHT22;26679;50.872;4.332;2023-06-14T00:20:04;24.60;62.90
39665;DHT22;26679;50.872;4.332;2023-06-14T00:22:33;24.50;62.90
39665;DHT22;26679;50.872;4.332;2023-06-14T00:24:58;24.60;63.00
39665;DHT22;26679;50.872;4.332;2023-06-14T00:27:24;24.60;63.00
39665;DHT22;26679;50.872;4.332;2023-06-14T00:29:50;24.50;63.00
39665;DHT22;26679;50.872;4.332;2023-06-14T00:32:15;24.40;63.20
39665;DHT22;26679;50.872;4.332;2023-06-14T00:34:41;24.40;63.30
39665;DHT22;26679;50.872;4.332;2023-06-14T00:37:06;24.40;63.30
39665;DHT22;26679;50.872;4.332;2023-06-14T00:39:32;24.30;63.30
39665;DHT22;26679;50.872;4.332;2023-06-14T00:41:57;24.30;63.20
39665;DHT22;26679;50.872;4.332;2023-06-14T00:44:24;24.40;63.30
39665;DHT22;26679;50.872;4.332;2023-06-14T00:46:50;24.40;63.30
39665;DHT22;26679;50.872;4.332;2023-06-14T00:49:15;24.20;63.40
39665;DHT22;26679;50.872;4.332;2023-06-14T00:51:42;24.20;63.50
39665;DHT22;26679;50.872;4.332;2023-06-14T00:54:08;24.20;63.60
39665;DHT22;26679;50.872;4.332;2023-06-14T00:56:35;24.10;63.60
39665;DHT22;26679;50.872;4.332;2023-06-14T00:59:00;24.00;63.90
39665;DHT22;26679;50.872;4.332;2023-06-14T01:01:27;24.00;63.90
39665;DHT22;26679;50.872;4.332;2023-06-14T01:03:53;23.90;64.10
39665;DHT22;26679;50.872;4.332;2023-06-14T01:09:01;23.90;64.30
39665;DHT22;26679;50.872;4.332;2023-06-14T01:11:31;23.90;64.20
39665;DHT22;26679;50.872;4.332;2023-06-14T01:13:58;23.90;64.30
39665;DHT22;26679;50.872;4.332;2023-06-14T01:16:24;23.90;64.30
39665;DHT22;26679;50.872;4.332;2023-06-14T01:18:51;23.80;64.50
39665;DHT22;26679;50.872;4.332;2023-06-14T01:21:21;23.60;64.80
39665;DHT22;26679;50.872;4.332;2023-06-14T01:23:46;23.50;65.00
39665;DHT22;26679;50.872;4.332;2023-06-14T01:26:21;23.40;65.30
39665;DHT22;26679;50.872;4.332;2023-06-14T01:28:47;23.20;65.70
39665;DHT22;26679;50.872;4.332;2023-06-14T01:31:16;23.00;66.00
39665;DHT22;26679;50.872;4.332;2023-06-14T01:33:42;23.00;66.10
39665;DHT22;26679;50.872;4.332;2023-06-14T01:36:08;23.00;66.30
39665;DHT22;26679;50.872;4.332;2023-06-14T01:38:34;23.00;66.50
39665;DHT22;26679;50.872;4.332;2023-06-14T01:41:01;23.00;66.70
39665;DHT22;26679;50.872;4.332;2023-06-14T01:43:27;22.90;66.70
39665;DHT22;26679;50.872;4.332;2023-06-14T01:45:55;22.90;66.70
39665;DHT22;26679;50.872;4.332;2023-06-14T01:48:22;22.90;66.80
39665;DHT22;26679;50.872;4.332;2023-06-14T01:50:48;22.80;66.70
39665;DHT22;26679;50.872;4.332;2023-06-14T01:53:14;22.80;67.00
39665;DHT22;26679;50.872;4.332;2023-06-14T01:55:39;22.80;67.20
39665;DHT22;26679;50.872;4.332;2023-06-14T01:58:09;22.70;67.40
39665;DHT22;26679;50.872;4.332;2023-06-14T02:00:34;22.70;67.40
39665;DHT22;26679;50.872;4.332;2023-06-14T02:03:01;22.60;67.80
39665;DHT22;26679;50.872;4.332;2023-06-14T02:05:26;22.40;68.10
39665;DHT22;26679;50.872;4.332;2023-06-14T02:07:52;22.30;68.40
39665;DHT22;26679;50.872;4.332;2023-06-14T02:10:22;22.40;68.40
39665;DHT22;26679;50.872;4.332;2023-06-14T02:12:47;22.50;68.20
39665;DHT22;26679;50.872;4.332;2023-06-14T02:15:13;22.50;68.10
39665;DHT22;26679;50.872;4.332;2023-06-14T02:17:42;22.50;68.10
39665;DHT22;26679;50.872;4.332;2023-06-14T02:20:08;22.50;68.10
39665;DHT22;26679;50.872;4.332;2023-06-14T02:22:34;22.60;68.00
39665;DHT22;26679;50.872;4.332;2023-06-14T02:25:00;22.60;68.10
39665;DHT22;26679;50.872;4.332;2023-06-14T02:27:26;22.60;68.20
39665;DHT22;26679;50.872;4.332;2023-06-14T02:29:51;22.50;68.20
39665;DHT22;26679;50.872;4.332;2023-06-14T02:32:16;22.40;68.40
39665;DHT22;26679;50.872;4.332;2023-06-14T02:34:42;22.40;68.50
39665;DHT22;26679;50.872;4.332;2023-06-14T02:37:07;22.10;69.00
39665;DHT22;26679;50.872;4.332;2023-06-14T02:39:33;22.00;69.50
39665;DHT22;26679;50.872;4.332;2023-06-14T02:41:59;21.90;69.60
39665;DHT22;26679;50.872;4.332;2023-06-14T02:44:25;22.00;69.30
39665;DHT22;26679;50.872;4.332;2023-06-14T02:46:56;22.00;69.20
39665;DHT22;26679;50.872;4.332;2023-06-14T02:49:22;22.00;69.30
39665;DHT22;26679;50.872;4.332;2023-06-14T02:51:47;22.10;69.50
39665;DHT22;26679;50.872;4.332;2023-06-14T02:54:13;21.90;69.60
39665;DHT22;26679;50.872;4.332;2023-06-14T02:56:39;21.90;69.60
39665;DHT22;26679;50.872;4.332;2023-06-14T02:59:04;22.00;69.50
39665;DHT22;26679;50.872;4.332;2023-06-14T03:01:30;21.90;69.50
39665;DHT22;26679;50.872;4.332;2023-06-14T03:03:59;21.90;69.60
39665;DHT22;26679;50.872;4.332;2023-06-14T03:06:24;21.90;69.70
39665;DHT22;26679;50.872;4.332;2023-06-14T03:08:50;21.90;69.70
39665;DHT22;26679;50.872;4.332;2023-06-14T03:11:16;21.90;69.60
39665;DHT22;26679;50.872;4.332;2023-06-14T03:13:45;21.90;69.70
39665;DHT22;26679;50.872;4.332;2023-06-14T03:16:12;21.90;69.90
39665;DHT22;26679;50.872;4.332;2023-06-14T03:18:37;21.80;70.20
39665;DHT22;26679;50.872;4.332;2023-06-14T03:21:03;21.70;70.30
39665;DHT22;26679;50.872;4.332;2023-06-14T03:23:29;21.60;70.50
39665;DHT22;26679;50.872;4.332;2023-06-14T03:25:54;21.40;70.90
39665;DHT22;26679;50.872;4.332;2023-06-14T03:28:21;21.30;71.20
39665;DHT22;26679;50.872;4.332;2023-06-14T03:30:46;21.30;71.40
39665;DHT22;26679;50.872;4.332;2023-06-14T03:33:12;21.30;71.40
39665;DHT22;26679;50.872;4.332;2023-06-14T03:35:37;21.30;71.50
39665;DHT22;26679;50.872;4.332;2023-06-14T03:38:03;21.30;71.50
39665;DHT22;26679;50.872;4.332;2023-06-14T03:40:29;21.30;71.50
39665;DHT22;26679;50.872;4.332;2023-06-14T03:42:54;21.20;71.60
39665;DHT22;26679;50.872;4.332;2023-06-14T03:45:20;21.30;71.60
39665;DHT22;26679;50.872;4.332;2023-06-14T03:47:46;21.20;71.60
39665;DHT22;26679;50.872;4.332;2023-06-14T03:50:12;21.20;71.80
39665;DHT22;26679;50.872;4.332;2023-06-14T03:52:40;21.20;71.60
39665;DHT22;26679;50.872;4.332;2023-06-14T03:55:09;21.20;71.80
39665;DHT22;26679;50.872;4.332;2023-06-14T03:57:35;21.00;72.10
39665;DHT22;26679;50.872;4.332;2023-06-14T04:00:01;21.00;72.30
39665;DHT22;26679;50.872;4.332;2023-06-14T04:02:26;20.90;72.40
39665;DHT22;26679;50.872;4.332;2023-06-14T04:04:54;20.80;72.60
39665;DHT22;26679;50.872;4.332;2023-06-14T04:07:20;20.80;72.60
39665;DHT22;26679;50.872;4.332;2023-06-14T04:09:45;20.90;72.40
39665;DHT22;26679;50.872;4.332;2023-06-14T04:12:11;21.00;72.10
39665;DHT22;26679;50.872;4.332;2023-06-14T04:14:37;21.00;72.10
39665;DHT22;26679;50.872;4.332;2023-06-14T04:17:03;20.90;72.20
39665;DHT22;26679;50.872;4.332;2023-06-14T04:19:29;20.90;72.60
39665;DHT22;26679;50.872;4.332;2023-06-14T04:21:54;20.80;73.00
39665;DHT22;26679;50.872;4.332;2023-06-14T04:24:20;20.80;72.40
39665;DHT22;26679;50.872;4.332;2023-06-14T04:26:46;20.70;72.80
39665;DHT22;26679;50.872;4.332;2023-06-14T04:29:13;20.70;72.60
39665;DHT22;26679;50.872;4.332;2023-06-14T04:31:42;20.50;72.90
39665;DHT22;26679;50.872;4.332;2023-06-14T04:34:09;20.60;73.00
39665;DHT22;26679;50.872;4.332;2023-06-14T04:36:41;20.60;72.90
39665;DHT22;26679;50.872;4.332;2023-06-14T04:39:15;20.60;73.10
39665;DHT22;26679;50.872;4.332;2023-06-14T04:41:40;20.60;72.80
39665;DHT22;26679;50.872;4.332;2023-06-14T04:44:06;20.60;73.00
39665;DHT22;26679;50.872;4.332;2023-06-14T04:46:32;20.50;73.00
39665;DHT22;26679;50.872;4.332;2023-06-14T04:48:58;20.50;73.10
39665;DHT22;26679;50.872;4.332;2023-06-14T04:51:27;20.50;73.20
39665;DHT22;26679;50.872;4.332;2023-06-14T04:53:57;20.50;73.10
39665;DHT22;26679;50.872;4.332;2023-06-14T04:56:24;20.60;73.20
39665;DHT22;26679;50.872;4.332;2023-06-14T04:58:50;20.60;73.00
39665;DHT22;26679;50.872;4.332;2023-06-14T05:01:15;20.50;73.30
39665;DHT22;26679;50.872;4.332;2023-06-14T05:03:41;20.50;73.30
39665;DHT22;26679;50.872;4.332;2023-06-14T05:06:10;20.50;73.20
39665;DHT22;26679;50.872;4.332;2023-06-14T05:08:36;20.60;73.20
39665;DHT22;26679;50.872;4.332;2023-06-14T05:11:02;20.70;73.00
39665;DHT22;26679;50.872;4.332;2023-06-14T05:13:27;20.80;72.70
39665;DHT22;26679;50.872;4.332;2023-06-14T05:15:53;20.80;72.60
39665;DHT22;26679;50.872;4.332;2023-06-14T05:18:19;20.80;72.60
39665;DHT22;26679;50.872;4.332;2023-06-14T05:20:45;20.90;72.60
39665;DHT22;26679;50.872;4.332;2023-06-14T05:23:11;20.90;72.40
39665;DHT22;26679;50.872;4.332;2023-06-14T05:25:43;21.00;72.50
39665;DHT22;26679;50.872;4.332;2023-06-14T05:28:09;20.90;72.60
39665;DHT22;26679;50.872;4.332;2023-06-14T05:30:34;21.00;72.60
39665;DHT22;26679;50.872;4.332;2023-06-14T05:33:00;21.00;72.20
39665;DHT22;26679;50.872;4.332;2023-06-14T05:35:25;21.00;72.30
39665;DHT22;26679;50.872;4.332;2023-06-14T05:37:52;21.10;72.40
39665;DHT22;26679;50.872;4.332;2023-06-14T05:40:17;21.20;72.00
39665;DHT22;26679;50.872;4.332;2023-06-14T05:42:43;21.40;71.70
39665;DHT22;26679;50.872;4.332;2023-06-14T05:45:09;21.40;71.60
39665;DHT22;26679;50.872;4.332;2023-06-14T05:47:34;21.50;71.30
39665;DHT22;26679;50.872;4.332;2023-06-14T05:50:00;21.50;70.80
39665;DHT22;26679;50.872;4.332;2023-06-14T05:52:25;21.40;71.10
39665;DHT22;26679;50.872;4.332;2023-06-14T05:54:51;21.40;71.00
39665;DHT22;26679;50.872;4.332;2023-06-14T05:57:20;21.40;71.10
39665;DHT22;26679;50.872;4.332;2023-06-14T05:59:46;21.50;70.90
39665;DHT22;26679;50.872;4.332;2023-06-14T06:02:12;21.60;71.00
39665;DHT22;26679;50.872;4.332;2023-06-14T06:04:38;21.50;70.90
39665;DHT22;26679;50.872;4.332;2023-06-14T06:07:03;21.50;71.10
39665;DHT22;26679;50.872;4.332;2023-06-14T06:09:29;21.60;70.90
39665;DHT22;26679;50.872;4.332;2023-06-14T06:11:54;21.60;70.80
39665;DHT22;26679;50.872;4.332;2023-06-14T06:14:20;21.60;71.00
39665;DHT22;26679;50.872;4.332;2023-06-14T06:16:45;21.50;71.00
39665;DHT22;26679;50.872;4.332;2023-06-14T06:19:11;21.50;71.40
39665;DHT22;26679;50.872;4.332;2023-06-14T06:21:37;21.60;71.10
39665;DHT22;26679;50.872;4.332;2023-06-14T06:24:04;21.70;70.90
39665;DHT22;26679;50.872;4.332;2023-06-14T06:26:31;21.80;70.60
39665;DHT22;26679;50.872;4.332;2023-06-14T06:28:57;21.70;70.90
39665;DHT22;26679;50.872;4.332;2023-06-14T06:31:23;21.90;71.00
39665;DHT22;26679;50.872;4.332;2023-06-14T06:33:49;22.10;70.50
39665;DHT22;26679;50.872;4.332;2023-06-14T06:36:15;22.10;70.30
39665;DHT22;26679;50.872;4.332;2023-06-14T06:38:41;22.20;70.30
39665;DHT22;26679;50.872;4.332;2023-06-14T06:41:06;22.40;70.00
39665;DHT22;26679;50.872;4.332;2023-06-14T06:43:32;22.40;69.70
39665;DHT22;26679;50.872;4.332;2023-06-14T06:45:58;22.50;69.50
39665;DHT22;26679;50.872;4.332;2023-06-14T06:48:24;22.70;69.70
39665;DHT22;26679;50.872;4.332;2023-06-14T06:50:49;22.70;69.10
39665;DHT22;26679;50.872;4.332;2023-06-14T06:53:16;22.80;69.30
39665;DHT22;26679;50.872;4.332;2023-06-14T06:55:43;23.00;69.10
39665;DHT22;26679;50.872;4.332;2023-06-14T06:58:09;23.00;69.00
39665;DHT22;26679;50.872;4.332;2023-06-14T07:00:35;23.00;68.90
39665;DHT22;26679;50.872;4.332;2023-06-14T07:03:01;23.10;68.70
39665;DHT22;26679;50.872;4.332;2023-06-14T07:05:26;23.40;68.50
39665;DHT22;26679;50.872;4.332;2023-06-14T07:07:52;23.60;68.20
39665;DHT22;26679;50.872;4.332;2023-06-14T07:10:17;23.90;67.40
39665;DHT22;26679;50.872;4.332;2023-06-14T07:12:43;24.00;67.20
39665;DHT22;26679;50.872;4.332;2023-06-14T07:15:09;24.10;66.40
39665;DHT22;26679;50.872;4.332;2023-06-14T07:17:37;24.20;66.40
39665;DHT22;26679;50.872;4.332;2023-06-14T07:20:03;24.20;66.10
39665;DHT22;26679;50.872;4.332;2023-06-14T07:22:40;24.20;65.70
39665;DHT22;26679;50.872;4.332;2023-06-14T07:25:10;24.00;66.30
39665;DHT22;26679;50.872;4.332;2023-06-14T07:27:39;23.80;66.50
39665;DHT22;26679;50.872;4.332;2023-06-14T07:30:06;23.80;66.80
39665;DHT22;26679;50.872;4.332;2023-06-14T07:32:31;23.80;66.80
39665;DHT22;26679;50.872;4.332;2023-06-14T07:34:57;23.90;67.20
39665;DHT22;26679;50.872;4.332;2023-06-14T07:37:23;24.20;66.80
39665;DHT22;26679;50.872;4.332;2023-06-14T07:39:48;24.40;66.20
39665;DHT22;26679;50.872;4.332;2023-06-14T07:42:14;24.60;65.80
39665;DHT22;26679;50.872;4.332;2023-06-14T07:44:41;24.60;66.00
39665;DHT22;26679;50.872;4.332;2023-06-14T07:47:07;24.80;65.50
39665;DHT22;26679;50.872;4.332;2023-06-14T07:49:32;25.00;65.00
39665;DHT22;26679;50.872;4.332;2023-06-14T07:51:58;25.10;64.70
39665;DHT22;26679;50.872;4.332;2023-06-14T07:54:24;25.10;64.90
39665;DHT22;26679;50.872;4.332;2023-06-14T07:56:51;25.20;64.70
39665;DHT22;26679;50.872;4.332;2023-06-14T07:59:17;25.30;64.90
39665;DHT22;26679;50.872;4.332;2023-06-14T08:01:43;25.20;64.70
39665;DHT22;26679;50.872;4.332;2023-06-14T08:04:12;25.10;64.80
39665;DHT22;26679;50.872;4.332;2023-06-14T08:06:38;25.10;64.50
39665;DHT22;26679;50.872;4.332;2023-06-14T08:09:04;24.80;65.10
39665;DHT22;26679;50.872;4.332;2023-06-14T08:11:30;24.60;66.30
39665;DHT22;26679;50.872;4.332;2023-06-14T08:13:56;24.80;66.50
39665;DHT22;26679;50.872;4.332;2023-06-14T08:16:21;25.10;66.30
39665;DHT22;26679;50.872;4.332;2023-06-14T08:18:48;25.30;66.00
39665;DHT22;26679;50.872;4.332;2023-06-14T08:21:14;25.60;65.60
39665;DHT22;26679;50.872;4.332;2023-06-14T08:23:40;25.70;64.30
39665;DHT22;26679;50.872;4.332;2023-06-14T08:26:06;25.80;64.60
39665;DHT22;26679;50.872;4.332;2023-06-14T08:28:32;26.00;64.00
39665;DHT22;26679;50.872;4.332;2023-06-14T08:30:57;26.10;63.60
39665;DHT22;26679;50.872;4.332;2023-06-14T08:33:23;26.00;63.30
39665;DHT22;26679;50.872;4.332;2023-06-14T08:36:01;26.00;63.10
39665;DHT22;26679;50.872;4.332;2023-06-14T08:38:37;25.90;62.70
39665;DHT22;26679;50.872;4.332;2023-06-14T08:41:03;25.90;63.00
39665;DHT22;26679;50.872;4.332;2023-06-14T08:43:31;25.90;63.40
39665;DHT22;26679;50.872;4.332;2023-06-14T08:46:00;25.90;63.80
39665;DHT22;26679;50.872;4.332;2023-06-14T08:48:27;26.00;63.70
39665;DHT22;26679;50.872;4.332;2023-06-14T08:50:56;26.10;63.70
39665;DHT22;26679;50.872;4.332;2023-06-14T08:53:27;26.20;63.60
39665;DHT22;26679;50.872;4.332;2023-06-14T08:55:54;26.30;63.00
39665;DHT22;26679;50.872;4.332;2023-06-14T08:58:20;26.40;62.90
39665;DHT22;26679;50.872;4.332;2023-06-14T09:00:49;26.30;62.30
39665;DHT22;26679;50.872;4.332;2023-06-14T09:03:17;26.30;63.10
39665;DHT22;26679;50.872;4.332;2023-06-14T09:05:45;25.60;64.10
39665;DHT22;26679;50.872;4.332;2023-06-14T09:08:12;25.50;65.00
39665;DHT22;26679;50.872;4.332;2023-06-14T09:10:40;25.30;65.50
39665;DHT22;26679;50.872;4.332;2023-06-14T09:13:06;25.30;65.90
39665;DHT22;26679;50.872;4.332;2023-06-14T09:15:32;25.60;66.20
39665;DHT22;26679;50.872;4.332;2023-06-14T09:18:03;25.90;66.00
39665;DHT22;26679;50.872;4.332;2023-06-14T09:20:32;26.00;65.90
39665;DHT22;26679;50.872;4.332;2023-06-14T09:22:57;26.20;66.00
39665;DHT22;26679;50.872;4.332;2023-06-14T09:25:23;26.30;65.90
39665;DHT22;26679;50.872;4.332;2023-06-14T09:27:51;26.50;65.10
39665;DHT22;26679;50.872;4.332;2023-06-14T09:30:19;26.50;64.40
39665;DHT22;26679;50.872;4.332;2023-06-14T09:32:45;26.40;63.70
39665;DHT22;26679;50.872;4.332;2023-06-14T09:35:10;26.40;62.90
39665;DHT22;26679;50.872;4.332;2023-06-14T09:37:39;27.30;62.30
39665;DHT22;26679;50.872;4.332;2023-06-14T09:40:05;28.40;60.80
39665;DHT22;26679;50.872;4.332;2023-06-14T09:42:32;29.00;60.60
39665;DHT22;26679;50.872;4.332;2023-06-14T09:45:01;29.00;61.10
39665;DHT22;26679;50.872;4.332;2023-06-14T09:47:27;30.30;59.80
39665;DHT22;26679;50.872;4.332;2023-06-14T09:49:52;30.70;58.90
39665;DHT22;26679;50.872;4.332;2023-06-14T09:52:21;31.50;57.10
39665;DHT22;26679;50.872;4.332;2023-06-14T09:54:47;31.20;56.60
39665;DHT22;26679;50.872;4.332;2023-06-14T09:57:24;31.40;57.40
39665;DHT22;26679;50.872;4.332;2023-06-14T09:59:58;32.00;56.30
39665;DHT22;26679;50.872;4.332;2023-06-14T10:02:27;32.00;55.90
39665;DHT22;26679;50.872;4.332;2023-06-14T10:07:34;32.10;56.30
39665;DHT22;26679;50.872;4.332;2023-06-14T10:10:01;33.20;55.80
39665;DHT22;26679;50.872;4.332;2023-06-14T10:12:27;32.60;55.30
39665;DHT22;26679;50.872;4.332;2023-06-14T10:14:52;32.10;55.60
39665;DHT22;26679;50.872;4.332;2023-06-14T10:19:56;32.70;54.30
39665;DHT22;26679;50.872;4.332;2023-06-14T10:22:34;33.60;52.80
39665;DHT22;26679;50.872;4.332;2023-06-14T10:25:01;34.40;53.10
39665;DHT22;26679;50.872;4.332;2023-06-14T10:27:27;34.80;52.40
39665;DHT22;26679;50.872;4.332;2023-06-14T10:32:18;35.50;51.80
39665;DHT22;26679;50.872;4.332;2023-06-14T10:37:25;33.30;53.40
39665;DHT22;26679;50.872;4.332;2023-06-14T10:39:50;33.60;53.80
39665;DHT22;26679;50.872;4.332;2023-06-14T10:42:16;33.40;53.60
39665;DHT22;26679;50.872;4.332;2023-06-14T10:47:24;32.60;52.20
39665;DHT22;26679;50.872;4.332;2023-06-14T10:49:51;33.70;53.00
39665;DHT22;26679;50.872;4.332;2023-06-14T10:52:18;35.00;52.20
39665;DHT22;26679;50.872;4.332;2023-06-14T10:57:22;36.10;51.30
39665;DHT22;26679;50.872;4.332;2023-06-14T10:59:49;36.50;50.70
39665;DHT22;26679;50.872;4.332;2023-06-14T11:02:20;35.90;51.10
39665;DHT22;26679;50.872;4.332;2023-06-14T11:04:52;36.50;50.60
39665;DHT22;26679;50.872;4.332;2023-06-14T11:07:25;36.70;50.50
39665;DHT22;26679;50.872;4.332;2023-06-14T11:12:33;38.00;49.80
39665;DHT22;26679;50.872;4.332;2023-06-14T11:15:02;37.30;49.60
39665;DHT22;26679;50.872;4.332;2023-06-14T11:17:28;37.50;50.20
39665;DHT22;26679;50.872;4.332;2023-06-14T11:22:38;38.00;49.20
39665;DHT22;26679;50.872;4.332;2023-06-14T11:25:04;38.20;49.40
39665;DHT22;26679;50.872;4.332;2023-06-14T11:27:32;37.20;49.20
39665;DHT22;26679;50.872;4.332;2023-06-14T11:29:57;33.40;51.90
39665;DHT22;26679;50.872;4.332;2023-06-14T11:32:25;32.50;52.80
39665;DHT22;26679;50.872;4.332;2023-06-14T11:34:51;33.70;52.50
39665;DHT22;26679;50.872;4.332;2023-06-14T11:37:17;35.30;51.30
39665;DHT22;26679;50.872;4.332;2023-06-14T11:39:45;36.10;50.50
39665;DHT22;26679;50.872;4.332;2023-06-14T11:42:15;36.70;50.10
39665;DHT22;26679;50.872;4.332;2023-06-14T11:44:40;36.90;49.60
39665;DHT22;26679;50.872;4.332;2023-06-14T11:47:06;35.10;50.60
39665;DHT22;26679;50.872;4.332;2023-06-14T11:49:35;33.80;51.40
39665;DHT22;26679;50.872;4.332;2023-06-14T11:52:01;33.10;52.20
39665;DHT22;26679;50.872;4.332;2023-06-14T11:54:27;34.70;51.80
39665;DHT22;26679;50.872;4.332;2023-06-14T11:56:52;36.40;50.30
39665;DHT22;26679;50.872;4.332;2023-06-14T11:59:20;36.60;50.10
39665;DHT22;26679;50.872;4.332;2023-06-14T12:01:47;37.40;49.40
39665;DHT22;26679;50.872;4.332;2023-06-14T12:04:12;36.70;49.90
39665;DHT22;26679;50.872;4.332;2023-06-14T12:06:38;37.00;50.00
39665;DHT22;26679;50.872;4.332;2023-06-14T12:09:05;37.40;49.50
39665;DHT22;26679;50.872;4.332;2023-06-14T12:11:34;36.90;49.80
39665;DHT22;26679;50.872;4.332;2023-06-14T12:13:59;36.80;49.90
39665;DHT22;26679;50.872;4.332;2023-06-14T12:19:09;38.90;48.70
39665;DHT22;26679;50.872;4.332;2023-06-14T12:21:36;38.90;48.40
39665;DHT22;26679;50.872;4.332;2023-06-14T12:24:04;38.90;48.00
39665;DHT22;26679;50.872;4.332;2023-06-14T12:26:32;39.00;48.20
39665;DHT22;26679;50.872;4.332;2023-06-14T12:28:58;39.00;47.90
39665;DHT22;26679;50.872;4.332;2023-06-14T12:31:25;38.00;47.80
39665;DHT22;26679;50.872;4.332;2023-06-14T12:33:51;38.10;48.20
39665;DHT22;26679;50.872;4.332;2023-06-14T12:36:16;38.10;48.20
39665;DHT22;26679;50.872;4.332;2023-06-14T12:38:42;38.30;47.80
39665;DHT22;26679;50.872;4.332;2023-06-14T12:41:10;39.10;47.40
39665;DHT22;26679;50.872;4.332;2023-06-14T12:43:36;38.90;47.50
39665;DHT22;26679;50.872;4.332;2023-06-14T12:46:01;39.10;47.70
39665;DHT22;26679;50.872;4.332;2023-06-14T12:48:27;39.30;47.50
39665;DHT22;26679;50.872;4.332;2023-06-14T12:50:53;38.50;47.80
39665;DHT22;26679;50.872;4.332;2023-06-14T12:53:18;38.20;48.20
39665;DHT22;26679;50.872;4.332;2023-06-14T12:55:44;39.00;47.70
39665;DHT22;26679;50.872;4.332;2023-06-14T12:58:10;39.70;47.20
39665;DHT22;26679;50.872;4.332;2023-06-14T13:00:37;40.40;47.30
39665;DHT22;26679;50.872;4.332;2023-06-14T13:03:03;41.00;46.80
39665;DHT22;26679;50.872;4.332;2023-06-14T13:05:29;41.00;46.70
39665;DHT22;26679;50.872;4.332;2023-06-14T13:07:56;41.10;46.80
39665;DHT22;26679;50.872;4.332;2023-06-14T13:10:22;40.00;46.90
39665;DHT22;26679;50.872;4.332;2023-06-14T13:12:47;39.70;47.30
39665;DHT22;26679;50.872;4.332;2023-06-14T13:15:13;39.70;47.10
39665;DHT22;26679;50.872;4.332;2023-06-14T13:17:38;40.30;47.10
39665;DHT22;26679;50.872;4.332;2023-06-14T13:20:05;40.50;47.00
39665;DHT22;26679;50.872;4.332;2023-06-14T13:22:30;40.80;46.70
39665;DHT22;26679;50.872;4.332;2023-06-14T13:24:56;40.70;46.70
39665;DHT22;26679;50.872;4.332;2023-06-14T13:27:21;40.90;46.50
39665;DHT22;26679;50.872;4.332;2023-06-14T13:29:49;40.80;46.40
39665;DHT22;26679;50.872;4.332;2023-06-14T13:32:14;40.90;46.90
39665;DHT22;26679;50.872;4.332;2023-06-14T13:34:40;41.00;46.70
39665;DHT22;26679;50.872;4.332;2023-06-14T13:37:05;40.20;47.30
39665;DHT22;26679;50.872;4.332;2023-06-14T13:39:31;39.30;47.20
39665;DHT22;26679;50.872;4.332;2023-06-14T13:41:56;40.00;47.00
39665;DHT22;26679;50.872;4.332;2023-06-14T13:44:22;39.50;47.00
39665;DHT22;26679;50.872;4.332;2023-06-14T13:46:47;39.80;47.10
39665;DHT22;26679;50.872;4.332;2023-06-14T13:49:13;40.00;46.80
39665;DHT22;26679;50.872;4.332;2023-06-14T13:51:38;40.30;46.80
39665;DHT22;26679;50.872;4.332;2023-06-14T13:54:04;40.80;46.20
39665;DHT22;26679;50.872;4.332;2023-06-14T13:56:30;41.20;45.70
39665;DHT22;26679;50.872;4.332;2023-06-14T13:58:55;41.60;46.10
39665;DHT22;26679;50.872;4.332;2023-06-14T14:01:21;41.50;45.50
39665;DHT22;26679;50.872;4.332;2023-06-14T14:03:48;41.20;45.60
39665;DHT22;26679;50.872;4.332;2023-06-14T14:06:15;41.30;45.70
39665;DHT22;26679;50.872;4.332;2023-06-14T14:08:40;39.20;45.70
39665;DHT22;26679;50.872;4.332;2023-06-14T14:11:06;38.10;45.90
39665;DHT22;26679;50.872;4.332;2023-06-14T14:13:33;37.00;46.30
39665;DHT22;26679;50.872;4.332;2023-06-14T14:15:59;38.10;46.70
39665;DHT22;26679;50.872;4.332;2023-06-14T14:18:25;38.00;46.70
39665;DHT22;26679;50.872;4.332;2023-06-14T14:20:51;38.50;46.30
39665;DHT22;26679;50.872;4.332;2023-06-14T14:23:16;35.90;47.30
39665;DHT22;26679;50.872;4.332;2023-06-14T14:25:42;37.00;47.60
39665;DHT22;26679;50.872;4.332;2023-06-14T14:28:07;38.20;47.00
39665;DHT22;26679;50.872;4.332;2023-06-14T14:30:33;39.00;46.50
39665;DHT22;26679;50.872;4.332;2023-06-14T14:32:59;39.10;46.10
39665;DHT22;26679;50.872;4.332;2023-06-14T14:35:25;39.80;45.80
39665;DHT22;26679;50.872;4.332;2023-06-14T14:37:55;39.80;45.80
39665;DHT22;26679;50.872;4.332;2023-06-14T14:40:21;40.50;45.60
39665;DHT22;26679;50.872;4.332;2023-06-14T14:42:46;40.20;45.20
39665;DHT22;26679;50.872;4.332;2023-06-14T14:45:12;39.10;45.70
39665;DHT22;26679;50.872;4.332;2023-06-14T14:47:38;38.60;45.90
39665;DHT22;26679;50.872;4.332;2023-06-14T14:50:03;37.70;46.10
39665;DHT22;26679;50.872;4.332;2023-06-14T14:52:29;38.20;46.20
39665;DHT22;26679;50.872;4.332;2023-06-14T14:54:55;39.00;46.00
39665;DHT22;26679;50.872;4.332;2023-06-14T14:57:21;39.30;45.80
39665;DHT22;26679;50.872;4.332;2023-06-14T14:59:47;38.20;45.70
39665;DHT22;26679;50.872;4.332;2023-06-14T15:02:12;37.70;46.40
39665;DHT22;26679;50.872;4.332;2023-06-14T15:04:37;38.60;46.40
39665;DHT22;26679;50.872;4.332;2023-06-14T15:07:03;38.20;45.80
39665;DHT22;26679;50.872;4.332;2023-06-14T15:09:28;38.20;45.90
39665;DHT22;26679;50.872;4.332;2023-06-14T15:11:55;38.90;45.80
39665;DHT22;26679;50.872;4.332;2023-06-14T15:14:20;39.30;45.50
39665;DHT22;26679;50.872;4.332;2023-06-14T15:16:46;39.40;45.60
39665;DHT22;26679;50.872;4.332;2023-06-14T15:19:11;38.60;45.60
39665;DHT22;26679;50.872;4.332;2023-06-14T15:21:37;38.20;46.40
39665;DHT22;26679;50.872;4.332;2023-06-14T15:24:02;39.00;45.80
39665;DHT22;26679;50.872;4.332;2023-06-14T15:26:28;37.00;46.10
39665;DHT22;26679;50.872;4.332;2023-06-14T15:28:54;37.00;46.40
39665;DHT22;26679;50.872;4.332;2023-06-14T15:31:20;37.80;46.50
39665;DHT22;26679;50.872;4.332;2023-06-14T15:33:45;38.60;46.20
39665;DHT22;26679;50.872;4.332;2023-06-14T15:36:11;38.90;46.00
39665;DHT22;26679;50.872;4.332;2023-06-14T15:38:36;38.80;45.70
39665;DHT22;26679;50.872;4.332;2023-06-14T15:41:02;38.00;46.30
39665;DHT22;26679;50.872;4.332;2023-06-14T15:43:28;37.40;46.50
39665;DHT22;26679;50.872;4.332;2023-06-14T15:45:54;37.80;47.40
39665;DHT22;26679;50.872;4.332;2023-06-14T15:48:19;37.80;46.80
39665;DHT22;26679;50.872;4.332;2023-06-14T15:50:45;38.30;46.70